YM Moderation — H9EW — position and weather

sailwx.info

Track history (hours):
 
Tides and Currents Weather Stations Pressure Air Temp Water Temp Dewpoint Dewpoint Depression Visibility Wind Speed Wind Dir Waves Ship Positions

YM Moderation

Last reported at 2018-Apr-16 10:30 UTC. Time now 2018-Apr-21 15:30 UTC.
Position N 34°37' W 024°47'.

Length 293 m; draft 12.7 m.

Type: Cargo ship. MMSI: 371633000.

Date/timePositionNaut miles runAvg speedWind from/ knotsBaromVisibWave heightAir tempDewpointWater temp
2018-Apr-16 10:30N 34°37' W 024°47'1220.6
2018-Apr-16 09:55N 34°37' W 024°33'9320.6
2018-Apr-16 05:24N 34°46' W 022°40'7320.8
2018-Apr-16 01:53N 34°52' W 021°11'76620.4
2018-Apr-14 12:20N 35°57' W 005°35'617.0
2018-Apr-14 12:00N 35°59' W 005°28'713.3
2018-Apr-14 11:31N 36°02' W 005°21'917.6
2018-Apr-14 11:00N 36°04' W 005°11'27620.3
2018-Apr-13 21:23N 37°02' E 000°26'63919.8
2018-Apr-12 13:10N 36°36' E 013°43'523.7
2018-Apr-12 12:57N 36°34' E 013°49'919.9
2018-Apr-12 12:29N 36°31' E 013°59'1322.9
2018-Apr-12 11:56N 36°26' E 014°14'818.7
2018-Apr-12 11:30N 36°23' E 014°24'1121.2
2018-Apr-12 11:00N 36°21' E 014°36'1021.2
2018-Apr-12 10:30N 36°18' E 014°49'1122.5
2018-Apr-12 10:00N 36°15' E 015°02'72421.3
2018-Apr-10 23:59N 32°47' E 029°03'  
Track history (hours):
 
Tides and Currents Weather Stations Pressure Air Temp Water Temp Dewpoint Dewpoint Depression Visibility Wind Speed Wind Dir Waves Ship Positions

YM Moderation

Last reported at 2018-Apr-16 10:30 UTC. Time now 2018-Apr-21 15:30 UTC.
Position N 34°37' W 024°47'.

Length 293 m; draft 12.7 m.

Type: Cargo ship. MMSI: 371633000.

Date/timePositionNaut miles runAvg speedWind from/ knotsBaromVisibWave heightAir tempDewpointWater temp
2018-Apr-16 10:30N 34°37' W 024°47'1220.6
2018-Apr-16 09:55N 34°37' W 024°33'9320.6
2018-Apr-16 05:24N 34°46' W 022°40'7320.8
2018-Apr-16 01:53N 34°52' W 021°11'76620.4
2018-Apr-14 12:20N 35°57' W 005°35'617.0
2018-Apr-14 12:00N 35°59' W 005°28'713.3
2018-Apr-14 11:31N 36°02' W 005°21'917.6
2018-Apr-14 11:00N 36°04' W 005°11'27620.3
2018-Apr-13 21:23N 37°02' E 000°26'63919.8
2018-Apr-12 13:10N 36°36' E 013°43'523.7
2018-Apr-12 12:57N 36°34' E 013°49'919.9
2018-Apr-12 12:29N 36°31' E 013°59'1322.9
2018-Apr-12 11:56N 36°26' E 014°14'818.7
2018-Apr-12 11:30N 36°23' E 014°24'1121.2
2018-Apr-12 11:00N 36°21' E 014°36'1021.2
2018-Apr-12 10:30N 36°18' E 014°49'1122.5
2018-Apr-12 10:00N 36°15' E 015°02'72421.3
2018-Apr-10 23:59N 32°47' E 029°03'  

Dump ship's entire track history